createdAt,value
2023-03-26T00:00:40.280Z,532.00
2023-03-26T00:01:30.349Z,534.00
2023-03-26T00:02:20.432Z,533.00
2023-03-26T00:03:10.546Z,531.00
2023-03-26T00:04:00.736Z,534.00
2023-03-26T00:04:50.763Z,533.00
2023-03-26T00:05:40.855Z,533.00
2023-03-26T00:06:31.171Z,534.00
2023-03-26T00:07:21.278Z,535.00
2023-03-26T00:08:11.285Z,530.00
2023-03-26T00:09:01.637Z,526.00
2023-03-26T00:09:51.661Z,529.00
2023-03-26T00:10:41.747Z,526.00
2023-03-26T00:11:31.778Z,528.00
2023-03-26T00:12:21.852Z,520.00
2023-03-26T00:13:11.870Z,526.00
2023-03-26T00:14:01.962Z,516.00
2023-03-26T00:14:51.992Z,522.00
2023-03-26T00:15:42.068Z,525.00
2023-03-26T00:16:32.182Z,530.00
2023-03-26T00:17:22.196Z,530.00
2023-03-26T00:18:12.481Z,529.00
2023-03-26T00:19:02.620Z,527.00
2023-03-26T00:19:52.625Z,521.00
2023-03-26T00:20:42.968Z,517.00
2023-03-26T00:21:32.985Z,515.00
2023-03-26T00:22:23.061Z,524.00
2023-03-26T00:23:13.153Z,531.00
2023-03-26T00:24:03.210Z,525.00
2023-03-26T00:24:53.234Z,527.00
2023-03-26T00:25:43.318Z,526.00
2023-03-26T00:26:33.363Z,521.00
2023-03-26T00:27:23.414Z,522.00
2023-03-26T00:28:13.498Z,515.00
2023-03-26T00:29:03.694Z,528.00
2023-03-26T00:29:53.834Z,518.00
2023-03-26T00:30:43.918Z,519.00
2023-03-26T00:31:33.979Z,523.00
2023-03-26T00:32:24.016Z,518.00
2023-03-26T00:33:14.086Z,516.00
2023-03-26T00:34:04.217Z,527.00
2023-03-26T00:34:54.216Z,522.00
2023-03-26T00:35:44.336Z,518.00
2023-03-26T00:36:34.356Z,520.00
2023-03-26T00:37:24.431Z,514.00
2023-03-26T00:38:14.467Z,519.00
2023-03-26T00:39:04.803Z,524.00
2023-03-26T00:39:54.815Z,518.00
2023-03-26T00:40:45.878Z,519.00
2023-03-26T00:41:34.917Z,519.00
2023-03-26T00:42:24.986Z,519.00
2023-03-26T00:43:15.058Z,516.00
2023-03-26T00:44:05.165Z,521.00
2023-03-26T00:44:55.196Z,515.00
2023-03-26T00:45:45.265Z,514.00
2023-03-26T00:46:35.489Z,520.00
2023-03-26T00:47:25.565Z,513.00
2023-03-26T00:48:15.562Z,524.00
2023-03-26T00:49:05.636Z,511.00
2023-03-26T00:49:55.648Z,524.00
2023-03-26T00:50:45.739Z,522.00
2023-03-26T00:51:35.796Z,520.00
2023-03-26T00:52:25.871Z,515.00
2023-03-26T00:53:15.910Z,512.00
2023-03-26T00:54:05.955Z,519.00
2023-03-26T00:54:56.006Z,516.00
2023-03-26T00:55:46.063Z,522.00
2023-03-26T00:56:36.160Z,516.00
2023-03-26T00:57:35.068Z,524.00
2023-03-26T00:58:17.256Z,522.00
2023-03-26T00:59:06.390Z,524.00
2023-03-26T00:59:56.396Z,525.00
2023-03-26T01:00:46.882Z,524.00
2023-03-26T01:01:36.553Z,525.00
2023-03-26T01:02:26.628Z,523.00
2023-03-26T01:03:26.990Z,518.00
2023-03-26T01:04:09.098Z,518.00
2023-03-26T01:04:56.793Z,518.00
2023-03-26T01:05:46.857Z,515.00
2023-03-26T01:06:36.961Z,518.00
2023-03-26T01:07:26.874Z,518.00
2023-03-26T01:08:16.949Z,520.00
2023-03-26T01:09:07.015Z,518.00
2023-03-26T01:09:57.048Z,523.00
2023-03-26T01:10:47.189Z,519.00
2023-03-26T01:11:37.195Z,523.00
2023-03-26T01:12:27.267Z,523.00
2023-03-26T01:13:17.302Z,514.00
2023-03-26T01:14:07.343Z,514.00
2023-03-26T01:14:57.368Z,508.00
2023-03-26T01:15:47.447Z,511.00
2023-03-26T01:16:37.489Z,515.00
2023-03-26T01:17:27.567Z,521.00
2023-03-26T01:18:17.586Z,511.00
2023-03-26T01:19:07.662Z,511.00
2023-03-26T01:19:57.997Z,518.00
2023-03-26T01:20:48.040Z,514.00
2023-03-26T01:21:38.059Z,512.00
2023-03-26T01:22:28.133Z,516.00
2023-03-26T01:23:18.207Z,510.00
2023-03-26T01:24:08.293Z,520.00
2023-03-26T01:24:58.315Z,516.00
2023-03-26T01:25:48.350Z,511.00
2023-03-26T01:26:38.408Z,516.00
2023-03-26T01:27:28.426Z,513.00
2023-03-26T01:28:18.449Z,516.00
2023-03-26T01:29:08.519Z,516.00
2023-03-26T01:29:58.592Z,523.00
2023-03-26T01:30:48.643Z,523.00
2023-03-26T01:31:38.679Z,521.00
2023-03-26T01:32:28.776Z,516.00
2023-03-26T01:33:18.894Z,520.00
2023-03-26T01:34:08.857Z,516.00
2023-03-26T01:34:58.895Z,520.00
2023-03-26T01:35:49.228Z,522.00
2023-03-26T01:36:39.215Z,525.00
2023-03-26T01:37:29.288Z,520.00
2023-03-26T01:38:19.356Z,520.00
2023-03-26T01:39:09.407Z,521.00
2023-03-26T01:39:59.440Z,517.00
2023-03-26T01:40:49.514Z,523.00
2023-03-26T01:41:39.514Z,520.00
2023-03-26T01:42:29.632Z,515.00
2023-03-26T01:43:19.664Z,526.00
2023-03-26T01:44:09.743Z,517.00
2023-03-26T01:45:00.031Z,515.00
2023-03-26T01:45:50.121Z,522.00
2023-03-26T01:46:40.193Z,524.00
2023-03-26T01:47:30.276Z,516.00
2023-03-26T01:48:20.247Z,523.00
2023-03-26T01:49:10.290Z,524.00
2023-03-26T01:50:00.345Z,521.00
2023-03-26T01:50:50.391Z,516.00
2023-03-26T01:51:40.484Z,517.00
2023-03-26T01:52:30.568Z,513.00
2023-03-26T01:53:20.595Z,518.00
2023-03-26T01:54:10.682Z,513.00
2023-03-26T01:55:00.728Z,516.00
2023-03-26T01:55:50.760Z,516.00
2023-03-26T01:56:40.839Z,510.00
2023-03-26T01:57:30.906Z,505.00
2023-03-26T01:58:20.998Z,511.00
2023-03-26T01:59:11.063Z,515.00
2023-03-26T02:00:01.084Z,510.00
2023-03-26T02:00:51.396Z,509.00
2023-03-26T02:01:41.504Z,516.00
2023-03-26T02:02:31.639Z,509.00
2023-03-26T02:03:21.653Z,511.00
2023-03-26T02:04:11.588Z,509.00
2023-03-26T02:05:01.674Z,507.00
2023-03-26T02:05:51.762Z,513.00
2023-03-26T02:06:41.687Z,514.00
2023-03-26T02:07:31.945Z,516.00
2023-03-26T02:08:22.035Z,518.00
2023-03-26T02:09:12.074Z,514.00
2023-03-26T02:10:02.121Z,518.00
2023-03-26T02:10:52.141Z,517.00
2023-03-26T02:11:42.182Z,511.00
2023-03-26T02:12:32.232Z,520.00
2023-03-26T02:13:22.267Z,511.00
2023-03-26T02:14:12.413Z,518.00
2023-03-26T02:15:02.424Z,522.00
2023-03-26T02:15:52.613Z,523.00
2023-03-26T02:16:42.518Z,524.00
2023-03-26T02:17:32.582Z,523.00
2023-03-26T02:18:22.589Z,525.00
2023-03-26T02:19:12.661Z,528.00
2023-03-26T02:20:02.712Z,528.00
2023-03-26T02:20:52.746Z,535.00
2023-03-26T02:21:42.767Z,524.00
2023-03-26T02:22:32.846Z,534.00
2023-03-26T02:23:22.882Z,523.00
2023-03-26T02:24:12.954Z,523.00
2023-03-26T02:25:02.978Z,534.00
2023-03-26T02:25:53.328Z,530.00
2023-03-26T02:26:43.079Z,520.00
2023-03-26T02:27:33.234Z,528.00
2023-03-26T02:28:23.253Z,530.00
2023-03-26T02:29:13.366Z,527.00
2023-03-26T02:30:03.523Z,538.00
2023-03-26T02:30:53.471Z,533.00
2023-03-26T02:31:43.688Z,532.00
2023-03-26T02:32:33.614Z,538.00
2023-03-26T02:33:23.620Z,532.00
2023-03-26T02:34:13.752Z,536.00
2023-03-26T02:35:03.798Z,536.00
2023-03-26T02:35:54.202Z,540.00
2023-03-26T02:36:43.963Z,536.00
2023-03-26T02:37:33.954Z,545.00
2023-03-26T02:38:23.982Z,548.00
2023-03-26T02:39:14.026Z,543.00
2023-03-26T02:40:04.058Z,547.00
2023-03-26T02:40:54.184Z,543.00
2023-03-26T02:41:44.220Z,544.00
2023-03-26T02:42:34.288Z,546.00
2023-03-26T02:43:24.324Z,547.00
2023-03-26T02:44:14.400Z,537.00
2023-03-26T02:45:04.443Z,546.00
2023-03-26T02:45:54.716Z,541.00
2023-03-26T02:46:44.560Z,545.00
2023-03-26T02:47:34.708Z,542.00
2023-03-26T02:48:24.689Z,548.00
2023-03-26T02:49:14.767Z,551.00
2023-03-26T02:50:04.848Z,543.00
2023-03-26T02:50:54.976Z,542.00
2023-03-26T02:51:44.912Z,553.00
2023-03-26T02:52:34.989Z,542.00
2023-03-26T02:53:25.017Z,548.00
2023-03-26T02:54:15.111Z,548.00
2023-03-26T02:55:05.153Z,543.00
2023-03-26T02:55:55.407Z,546.00
2023-03-26T02:56:45.232Z,545.00
2023-03-26T02:57:35.298Z,546.00
2023-03-26T02:58:25.365Z,536.00
2023-03-26T02:59:15.530Z,544.00
2023-03-26T03:00:05.537Z,537.00
2023-03-26T03:00:55.624Z,545.00
2023-03-26T03:01:45.628Z,545.00
2023-03-26T03:02:35.689Z,544.00
2023-03-26T03:03:25.972Z,552.00
2023-03-26T03:04:15.956Z,546.00
2023-03-26T03:05:06.027Z,542.00
2023-03-26T03:05:56.264Z,538.00
2023-03-26T03:06:46.101Z,545.00
2023-03-26T03:07:36.256Z,544.00
2023-03-26T03:08:26.350Z,546.00
2023-03-26T03:09:16.354Z,542.00
2023-03-26T03:10:06.412Z,543.00
2023-03-26T03:10:56.462Z,547.00
2023-03-26T03:11:46.472Z,545.00
2023-03-26T03:12:36.503Z,545.00
2023-03-26T03:13:26.545Z,544.00
2023-03-26T03:14:16.635Z,546.00
2023-03-26T03:15:06.708Z,544.00
2023-03-26T03:15:57.104Z,538.00
2023-03-26T03:16:46.827Z,547.00
2023-03-26T03:17:36.892Z,542.00
2023-03-26T03:18:26.876Z,544.00
2023-03-26T03:19:16.941Z,547.00
2023-03-26T03:20:06.966Z,541.00
2023-03-26T03:20:57.047Z,546.00
2023-03-26T03:21:47.082Z,543.00
2023-03-26T03:22:37.122Z,545.00
2023-03-26T03:23:27.196Z,537.00
2023-03-26T03:24:17.270Z,537.00
2023-03-26T03:25:07.324Z,538.00
2023-03-26T03:25:57.635Z,542.00
2023-03-26T03:26:47.419Z,545.00
2023-03-26T03:27:37.484Z,545.00
2023-03-26T03:28:27.571Z,544.00
2023-03-26T03:29:17.633Z,545.00
2023-03-26T03:30:07.669Z,533.00
2023-03-26T03:30:57.844Z,541.00
2023-03-26T03:31:47.766Z,553.00
2023-03-26T03:32:37.896Z,549.00
2023-03-26T03:33:27.941Z,548.00
2023-03-26T03:34:18.000Z,546.00
2023-03-26T03:35:08.043Z,549.00
2023-03-26T03:35:58.208Z,543.00
2023-03-26T03:36:48.145Z,547.00
2023-03-26T03:37:38.190Z,555.00
2023-03-26T03:38:28.225Z,557.00
2023-03-26T03:39:18.279Z,546.00
2023-03-26T03:40:08.312Z,551.00
2023-03-26T03:40:58.393Z,548.00
2023-03-26T03:41:48.424Z,553.00
2023-03-26T03:42:38.525Z,559.00
2023-03-26T03:43:28.534Z,561.00
2023-03-26T03:44:18.616Z,561.00
2023-03-26T03:45:08.676Z,555.00
2023-03-26T03:45:58.827Z,561.00
2023-03-26T03:46:48.778Z,561.00
2023-03-26T03:47:38.841Z,555.00
2023-03-26T03:48:28.837Z,551.00
2023-03-26T03:49:18.919Z,556.00
2023-03-26T03:50:08.951Z,555.00
2023-03-26T03:50:58.978Z,553.00
2023-03-26T03:51:49.009Z,548.00
2023-03-26T03:52:39.091Z,557.00
2023-03-26T03:53:29.116Z,554.00
2023-03-26T03:54:19.192Z,554.00
2023-03-26T03:55:09.234Z,556.00
2023-03-26T03:55:59.272Z,555.00
2023-03-26T03:56:49.374Z,554.00
2023-03-26T03:57:39.395Z,549.00
2023-03-26T03:58:29.424Z,554.00
2023-03-26T03:59:19.521Z,554.00
2023-03-26T04:00:09.587Z,551.00
2023-03-26T04:00:59.629Z,547.00
2023-03-26T04:01:49.657Z,556.00
2023-03-26T04:02:39.783Z,556.00
2023-03-26T04:03:33.503Z,558.00
2023-03-26T04:04:19.856Z,554.00
2023-03-26T04:05:09.927Z,548.00
2023-03-26T04:05:59.925Z,545.00
2023-03-26T04:06:49.954Z,560.00
2023-03-26T04:07:40.028Z,555.00
2023-03-26T04:08:30.084Z,552.00
2023-03-26T04:09:20.163Z,555.00
2023-03-26T04:10:10.213Z,551.00
2023-03-26T04:11:00.249Z,549.00
2023-03-26T04:11:50.319Z,559.00
2023-03-26T04:12:40.386Z,560.00
2023-03-26T04:13:30.425Z,554.00
2023-03-26T04:14:20.502Z,555.00
2023-03-26T04:15:10.558Z,553.00
2023-03-26T04:16:00.642Z,552.00
2023-03-26T04:16:50.617Z,550.00
2023-03-26T04:17:40.744Z,562.00
2023-03-26T04:18:30.731Z,557.00
2023-03-26T04:19:21.386Z,557.00
2023-03-26T04:20:10.876Z,554.00
2023-03-26T04:21:00.926Z,552.00
2023-03-26T04:21:50.968Z,558.00
2023-03-26T04:22:41.044Z,555.00
2023-03-26T04:23:31.073Z,557.00
2023-03-26T04:24:21.413Z,566.00
2023-03-26T04:25:11.458Z,557.00
2023-03-26T04:26:01.504Z,556.00
2023-03-26T04:26:51.574Z,557.00
2023-03-26T04:27:41.780Z,561.00
2023-03-26T04:28:31.710Z,565.00
2023-03-26T04:29:21.791Z,555.00
2023-03-26T04:30:11.838Z,564.00
2023-03-26T04:31:01.943Z,562.00
2023-03-26T04:31:51.958Z,555.00
2023-03-26T04:32:42.063Z,561.00
2023-03-26T04:33:32.027Z,556.00
2023-03-26T04:34:22.110Z,556.00
2023-03-26T04:35:12.148Z,558.00
2023-03-26T04:36:02.204Z,562.00
2023-03-26T04:36:52.243Z,565.00
2023-03-26T04:37:42.267Z,562.00
2023-03-26T04:38:32.299Z,559.00
2023-03-26T04:39:22.374Z,558.00
2023-03-26T04:40:12.422Z,559.00
2023-03-26T04:41:04.566Z,563.00
2023-03-26T04:41:52.508Z,561.00
2023-03-26T04:42:42.580Z,559.00
2023-03-26T04:43:32.607Z,558.00
2023-03-26T04:44:22.688Z,560.00
2023-03-26T04:45:12.733Z,557.00
2023-03-26T04:46:02.780Z,556.00
2023-03-26T04:46:52.866Z,563.00
2023-03-26T04:47:42.944Z,567.00
2023-03-26T04:48:32.918Z,566.00
2023-03-26T04:49:23.002Z,563.00
2023-03-26T04:50:13.058Z,564.00
2023-03-26T04:51:03.105Z,559.00
2023-03-26T04:51:53.135Z,558.00
2023-03-26T04:52:45.096Z,561.00
2023-03-26T04:53:33.242Z,559.00
2023-03-26T04:54:23.314Z,559.00
2023-03-26T04:55:13.413Z,553.00
2023-03-26T04:56:03.445Z,551.00
2023-03-26T04:56:53.492Z,559.00
2023-03-26T04:57:43.545Z,558.00
2023-03-26T04:58:33.606Z,552.00
2023-03-26T04:59:23.690Z,561.00
2023-03-26T05:00:13.736Z,564.00
2023-03-26T05:01:10.421Z,547.00
2023-03-26T05:01:54.840Z,547.00
2023-03-26T05:02:43.912Z,548.00
2023-03-26T05:03:33.908Z,550.00
2023-03-26T05:04:24.003Z,550.00
2023-03-26T05:05:14.062Z,556.00
2023-03-26T05:06:04.075Z,546.00
2023-03-26T05:06:54.114Z,555.00
2023-03-26T05:07:44.445Z,563.00
2023-03-26T05:08:34.603Z,570.00
2023-03-26T05:09:24.533Z,564.00
2023-03-26T05:10:14.598Z,563.00
2023-03-26T05:11:04.639Z,563.00
2023-03-26T05:11:54.670Z,567.00
2023-03-26T05:12:44.749Z,560.00
2023-03-26T05:13:34.772Z,554.00
2023-03-26T05:14:24.906Z,564.00
2023-03-26T05:15:14.984Z,570.00
2023-03-26T05:16:05.047Z,562.00
2023-03-26T05:16:55.064Z,574.00
2023-03-26T05:17:45.146Z,568.00
2023-03-26T05:18:35.179Z,579.00
2023-03-26T05:19:25.255Z,579.00
2023-03-26T05:20:15.296Z,589.00
2023-03-26T05:21:05.336Z,583.00
2023-03-26T05:21:55.375Z,597.00
2023-03-26T05:22:45.444Z,596.00
2023-03-26T05:23:35.677Z,595.00
2023-03-26T05:24:25.761Z,599.00
2023-03-26T05:25:15.837Z,608.00
2023-03-26T05:26:05.861Z,613.00
2023-03-26T05:26:55.875Z,623.00
2023-03-26T05:27:45.948Z,613.00
2023-03-26T05:28:36.005Z,613.00
2023-03-26T05:29:26.102Z,620.00
2023-03-26T05:30:16.168Z,615.00
2023-03-26T05:31:06.201Z,614.00
2023-03-26T05:31:56.240Z,612.00
2023-03-26T05:32:46.344Z,615.00
2023-03-26T05:33:36.417Z,623.00
2023-03-26T05:34:26.354Z,616.00
2023-03-26T05:35:16.455Z,619.00
2023-03-26T05:36:06.465Z,611.00
2023-03-26T05:36:56.527Z,611.00
2023-03-26T05:37:46.608Z,609.00
2023-03-26T05:38:36.668Z,602.00
2023-03-26T05:39:26.958Z,615.00
2023-03-26T05:40:17.344Z,615.00
2023-03-26T05:41:07.068Z,618.00
2023-03-26T05:41:57.094Z,603.00
2023-03-26T05:42:47.159Z,605.00
2023-03-26T05:43:37.232Z,612.00
2023-03-26T05:44:27.308Z,615.00
2023-03-26T05:45:17.377Z,608.00
2023-03-26T05:46:07.596Z,614.00
2023-03-26T05:46:57.504Z,611.00
2023-03-26T05:47:47.608Z,608.00
2023-03-26T05:48:37.797Z,610.00
2023-03-26T05:49:27.865Z,607.00
2023-03-26T05:50:17.948Z,610.00
2023-03-26T05:51:07.990Z,612.00
2023-03-26T05:51:58.009Z,608.00
2023-03-26T05:52:48.075Z,624.00
2023-03-26T05:53:38.138Z,605.00
2023-03-26T05:54:28.211Z,610.00
2023-03-26T05:55:18.300Z,606.00
2023-03-26T05:56:08.351Z,607.00
2023-03-26T05:56:58.422Z,612.00
2023-03-26T05:57:48.679Z,611.00
2023-03-26T05:58:38.740Z,601.00
2023-03-26T05:59:28.814Z,616.00
2023-03-26T06:00:19.121Z,611.00
2023-03-26T06:01:09.138Z,607.00
2023-03-26T06:01:59.203Z,609.00
2023-03-26T06:02:49.627Z,610.00
2023-03-26T06:03:39.743Z,610.00
2023-03-26T06:04:29.746Z,603.00
2023-03-26T06:05:19.737Z,602.00
2023-03-26T06:06:09.766Z,611.00
2023-03-26T06:06:59.789Z,608.00
2023-03-26T06:07:49.874Z,605.00
2023-03-26T06:08:39.900Z,609.00
2023-03-26T06:09:29.978Z,603.00
2023-03-26T06:10:20.039Z,610.00
2023-03-26T06:11:10.077Z,601.00
2023-03-26T06:12:00.113Z,612.00
2023-03-26T06:12:50.190Z,604.00
2023-03-26T06:13:40.223Z,603.00
2023-03-26T06:14:30.304Z,604.00
2023-03-26T06:15:20.379Z,605.00
2023-03-26T06:16:10.533Z,600.00
2023-03-26T06:17:01.463Z,600.00
2023-03-26T06:17:50.577Z,601.00
2023-03-26T06:18:40.615Z,600.00
2023-03-26T06:19:30.616Z,600.00
2023-03-26T06:20:20.705Z,606.00
2023-03-26T06:21:10.737Z,600.00
2023-03-26T06:22:00.788Z,602.00
2023-03-26T06:22:51.008Z,607.00
2023-03-26T06:23:41.041Z,615.00
2023-03-26T06:24:31.073Z,614.00
2023-03-26T06:25:21.121Z,616.00
2023-03-26T06:26:11.149Z,635.00
2023-03-26T06:27:01.212Z,636.00
2023-03-26T06:27:51.333Z,638.00
2023-03-26T06:28:41.317Z,630.00
2023-03-26T06:29:31.385Z,625.00
2023-03-26T06:30:21.472Z,640.00
2023-03-26T06:31:11.563Z,641.00
2023-03-26T06:32:12.440Z,639.00
2023-03-26T06:32:52.626Z,639.00
2023-03-26T06:33:41.682Z,639.00
2023-03-26T06:34:31.741Z,635.00
2023-03-26T06:35:21.771Z,635.00
2023-03-26T06:36:11.847Z,637.00
2023-03-26T06:37:01.854Z,636.00
2023-03-26T06:37:51.927Z,625.00
2023-03-26T06:38:42.147Z,627.00
2023-03-26T06:39:32.226Z,614.00
2023-03-26T06:40:22.273Z,620.00
2023-03-26T06:41:12.313Z,622.00
2023-03-26T06:42:02.369Z,626.00
2023-03-26T06:43:08.341Z,624.00
2023-03-26T06:43:43.499Z,618.00
2023-03-26T06:44:32.527Z,625.00
2023-03-26T06:45:22.660Z,625.00
2023-03-26T06:46:12.742Z,626.00
2023-03-26T06:47:02.714Z,626.00
2023-03-26T06:47:52.797Z,622.00
2023-03-26T06:48:42.845Z,619.00
2023-03-26T06:49:33.062Z,623.00
2023-03-26T06:50:23.121Z,630.00
2023-03-26T06:51:13.129Z,627.00
2023-03-26T06:52:03.204Z,628.00
2023-03-26T06:52:53.274Z,632.00
2023-03-26T06:53:43.348Z,624.00
2023-03-26T06:54:33.417Z,624.00
2023-03-26T06:55:23.511Z,627.00
2023-03-26T06:56:13.562Z,631.00
2023-03-26T06:57:03.650Z,636.00
2023-03-26T06:57:53.673Z,640.00
2023-03-26T06:58:43.920Z,632.00
2023-03-26T06:59:34.016Z,635.00
2023-03-26T07:00:24.169Z,639.00
2023-03-26T07:01:14.135Z,630.00
2023-03-26T07:02:04.127Z,639.00
2023-03-26T07:02:54.224Z,654.00
2023-03-26T07:03:44.265Z,641.00
2023-03-26T07:04:34.306Z,643.00
2023-03-26T07:05:24.399Z,653.00
2023-03-26T07:06:14.460Z,678.00
2023-03-26T07:07:04.495Z,662.00
2023-03-26T07:07:54.565Z,682.00
2023-03-26T07:08:44.601Z,662.00
2023-03-26T07:09:34.678Z,662.00
2023-03-26T07:10:24.725Z,658.00
2023-03-26T07:11:14.739Z,666.00
2023-03-26T07:12:04.765Z,676.00
2023-03-26T07:12:54.845Z,682.00
2023-03-26T07:13:44.865Z,689.00
2023-03-26T07:14:34.931Z,703.00
2023-03-26T07:15:25.066Z,718.00
2023-03-26T07:16:15.080Z,711.00
2023-03-26T07:17:05.105Z,731.00
2023-03-26T07:17:55.204Z,746.00
2023-03-26T07:18:45.157Z,745.00
2023-03-26T07:19:35.226Z,743.00
2023-03-26T07:20:25.307Z,748.00
2023-03-26T07:21:15.636Z,754.00
2023-03-26T07:22:05.700Z,738.00
2023-03-26T07:22:55.765Z,744.00
2023-03-26T07:23:46.083Z,752.00
2023-03-26T07:24:36.154Z,755.00
2023-03-26T07:25:26.196Z,757.00
2023-03-26T07:26:16.234Z,766.00
2023-03-26T07:27:06.358Z,750.00
2023-03-26T07:27:56.328Z,738.00
2023-03-26T07:29:04.756Z,783.00
2023-03-26T07:29:37.463Z,770.00
2023-03-26T07:30:26.551Z,740.00
2023-03-26T07:31:16.635Z,758.00
2023-03-26T07:32:06.686Z,759.00
2023-03-26T07:32:56.745Z,739.00
2023-03-26T07:33:46.812Z,759.00
2023-03-26T07:34:36.840Z,752.00
2023-03-26T07:35:26.981Z,742.00
2023-03-26T07:36:17.009Z,767.00
2023-03-26T07:37:07.065Z,785.00
2023-03-26T07:37:57.106Z,765.00
2023-03-26T07:38:47.169Z,739.00
2023-03-26T07:39:37.240Z,735.00
2023-03-26T07:40:27.324Z,753.00
2023-03-26T07:41:17.351Z,773.00
2023-03-26T07:42:07.430Z,762.00
2023-03-26T07:42:57.431Z,783.00
2023-03-26T07:43:47.506Z,784.00
2023-03-26T07:44:37.787Z,756.00
2023-03-26T07:45:27.877Z,779.00
2023-03-26T07:46:17.951Z,781.00
2023-03-26T07:47:07.996Z,771.00
2023-03-26T07:47:58.082Z,762.00
2023-03-26T07:48:48.101Z,755.00
2023-03-26T07:49:38.156Z,767.00
2023-03-26T07:50:28.208Z,799.00
2023-03-26T07:51:18.689Z,778.00
2023-03-26T07:52:08.274Z,763.00
2023-03-26T07:52:58.313Z,736.00
2023-03-26T07:53:48.641Z,751.00
2023-03-26T07:54:38.708Z,759.00
2023-03-26T07:55:28.792Z,761.00
2023-03-26T07:56:19.171Z,721.00
2023-03-26T07:57:09.233Z,770.00
2023-03-26T07:57:59.179Z,750.00
2023-03-26T07:58:49.250Z,751.00
2023-03-26T07:59:39.319Z,728.00
2023-03-26T08:00:29.448Z,706.00
2023-03-26T08:01:19.416Z,682.00
2023-03-26T08:02:09.502Z,700.00
2023-03-26T08:02:59.622Z,706.00
2023-03-26T08:03:49.672Z,736.00
2023-03-26T08:04:39.754Z,724.00
2023-03-26T08:05:29.914Z,711.00
2023-03-26T08:06:19.917Z,710.00
2023-03-26T08:07:10.143Z,663.00
2023-03-26T08:08:00.041Z,656.00
2023-03-26T08:08:50.116Z,672.00
2023-03-26T08:09:40.138Z,700.00
2023-03-26T08:10:30.226Z,680.00
2023-03-26T08:11:20.257Z,725.00
2023-03-26T08:12:10.324Z,695.00
2023-03-26T08:13:00.386Z,706.00
2023-03-26T08:13:50.458Z,741.00
2023-03-26T08:14:40.657Z,741.00
2023-03-26T08:15:30.797Z,700.00
2023-03-26T08:16:20.835Z,688.00
2023-03-26T08:17:10.853Z,677.00
2023-03-26T08:18:00.888Z,673.00
2023-03-26T08:18:50.961Z,663.00
2023-03-26T08:19:40.999Z,659.00
2023-03-26T08:20:31.112Z,652.00
2023-03-26T08:21:21.116Z,660.00
2023-03-26T08:22:11.193Z,653.00
2023-03-26T08:23:01.214Z,663.00
2023-03-26T08:23:51.377Z,665.00
2023-03-26T08:24:41.350Z,654.00
2023-03-26T08:25:31.449Z,656.00
2023-03-26T08:26:21.453Z,676.00
2023-03-26T08:27:11.534Z,666.00
2023-03-26T08:28:01.693Z,665.00
2023-03-26T08:28:51.754Z,681.00
2023-03-26T08:29:41.828Z,676.00
2023-03-26T08:30:32.179Z,671.00
2023-03-26T08:31:22.221Z,712.00
2023-03-26T08:32:12.303Z,693.00
2023-03-26T08:33:02.394Z,719.00
2023-03-26T08:33:52.380Z,717.00
2023-03-26T08:34:42.454Z,706.00
2023-03-26T08:35:32.568Z,728.00
2023-03-26T08:36:22.522Z,670.00
2023-03-26T08:37:12.639Z,679.00
2023-03-26T08:38:02.711Z,717.00
2023-03-26T08:38:52.786Z,752.00
2023-03-26T08:39:43.070Z,753.00
2023-03-26T08:40:33.161Z,718.00
2023-03-26T08:41:23.190Z,688.00
2023-03-26T08:42:13.254Z,672.00
2023-03-26T08:43:03.331Z,663.00
2023-03-26T08:43:55.127Z,675.00
2023-03-26T08:44:43.453Z,676.00
2023-03-26T08:45:33.540Z,657.00
2023-03-26T08:46:23.636Z,706.00
2023-03-26T08:47:13.611Z,724.00
2023-03-26T08:48:03.778Z,712.00
2023-03-26T08:48:53.967Z,712.00
2023-03-26T08:49:44.027Z,708.00
2023-03-26T08:50:34.142Z,668.00
2023-03-26T08:51:24.404Z,694.00
2023-03-26T08:52:14.478Z,696.00
2023-03-26T08:53:04.551Z,687.00
2023-03-26T08:53:54.625Z,682.00
2023-03-26T08:54:44.658Z,670.00
2023-03-26T08:55:34.753Z,661.00
2023-03-26T08:56:24.776Z,652.00
2023-03-26T08:58:04.937Z,666.00
2023-03-26T08:58:54.964Z,662.00
2023-03-26T08:59:44.993Z,657.00
2023-03-26T09:00:35.356Z,677.00
2023-03-26T09:01:25.401Z,704.00
2023-03-26T09:02:15.471Z,733.00
2023-03-26T09:03:05.514Z,687.00
2023-03-26T09:03:55.591Z,688.00
2023-03-26T09:04:45.588Z,675.00
2023-03-26T09:05:35.690Z,686.00
2023-03-26T09:06:25.737Z,684.00
2023-03-26T09:07:15.826Z,681.00
2023-03-26T09:08:05.860Z,690.00
2023-03-26T09:08:55.961Z,682.00
2023-03-26T09:09:45.978Z,663.00
2023-03-26T09:10:36.070Z,659.00
2023-03-26T09:11:26.106Z,663.00
2023-03-26T09:12:16.175Z,652.00
2023-03-26T09:13:06.200Z,663.00
2023-03-26T09:13:56.303Z,666.00
2023-03-26T09:14:46.336Z,689.00
2023-03-26T09:15:36.414Z,663.00
2023-03-26T09:16:26.465Z,646.00
2023-03-26T09:17:16.479Z,635.00
2023-03-26T09:18:06.586Z,646.00
2023-03-26T09:18:56.619Z,651.00
2023-03-26T09:19:46.645Z,654.00
2023-03-26T09:20:36.740Z,642.00
2023-03-26T09:21:26.769Z,640.00
2023-03-26T09:22:16.873Z,630.00
2023-03-26T09:23:07.121Z,645.00
2023-03-26T09:23:57.269Z,633.00
2023-03-26T09:24:47.268Z,648.00
2023-03-26T09:25:37.316Z,652.00
2023-03-26T09:26:27.347Z,684.00
2023-03-26T09:27:17.438Z,674.00
2023-03-26T09:28:07.469Z,665.00
2023-03-26T09:28:57.541Z,664.00
2023-03-26T09:29:47.610Z,654.00
2023-03-26T09:30:37.699Z,638.00
2023-03-26T09:31:27.759Z,647.00
2023-03-26T09:32:18.023Z,636.00
2023-03-26T09:33:08.096Z,631.00
2023-03-26T09:33:58.144Z,637.00
2023-03-26T09:34:48.204Z,637.00
2023-03-26T09:35:38.299Z,638.00
2023-03-26T09:36:28.315Z,637.00
2023-03-26T09:37:18.402Z,646.00
2023-03-26T09:38:08.434Z,650.00
2023-03-26T09:38:58.483Z,639.00
2023-03-26T09:39:48.722Z,644.00
2023-03-26T09:40:38.823Z,643.00
2023-03-26T09:41:28.845Z,652.00
2023-03-26T09:42:18.924Z,656.00
2023-03-26T09:43:08.978Z,654.00
2023-03-26T09:43:59.060Z,654.00
2023-03-26T09:44:49.186Z,656.00
2023-03-26T09:45:39.249Z,651.00
2023-03-26T09:46:29.224Z,679.00
2023-03-26T09:47:19.292Z,658.00
2023-03-26T09:48:09.355Z,696.00
2023-03-26T09:48:59.562Z,662.00
2023-03-26T09:49:49.590Z,678.00
2023-03-26T09:50:39.678Z,701.00
2023-03-26T09:51:29.711Z,701.00
2023-03-26T09:52:19.741Z,666.00
2023-03-26T09:53:09.768Z,697.00
2023-03-26T09:53:59.864Z,700.00
2023-03-26T09:54:49.911Z,695.00
2023-03-26T09:55:40.007Z,692.00
2023-03-26T09:56:30.058Z,656.00
2023-03-26T09:57:20.157Z,633.00
2023-03-26T09:58:10.185Z,627.00
2023-03-26T09:59:00.201Z,641.00
2023-03-26T09:59:50.227Z,630.00
2023-03-26T10:00:40.325Z,639.00
2023-03-26T10:01:30.432Z,643.00
2023-03-26T10:02:20.405Z,639.00
2023-03-26T10:03:10.484Z,646.00
2023-03-26T10:04:00.553Z,653.00
2023-03-26T10:04:50.857Z,658.00
2023-03-26T10:05:40.919Z,660.00
2023-03-26T10:06:30.935Z,662.00
2023-03-26T10:07:21.005Z,662.00
2023-03-26T10:08:11.059Z,672.00
2023-03-26T10:09:01.131Z,697.00
2023-03-26T10:09:51.219Z,692.00
2023-03-26T10:10:41.240Z,713.00
2023-03-26T10:11:31.265Z,706.00
2023-03-26T10:12:21.328Z,683.00
2023-03-26T10:13:14.995Z,717.00
2023-03-26T10:14:01.454Z,717.00
2023-03-26T10:14:51.510Z,718.00
2023-03-26T10:15:41.600Z,706.00
2023-03-26T10:16:31.662Z,699.00
2023-03-26T10:17:21.704Z,728.00
2023-03-26T10:18:26.704Z,770.00
2023-03-26T10:19:02.830Z,718.00
2023-03-26T10:19:51.867Z,719.00
2023-03-26T10:20:41.941Z,708.00
2023-03-26T10:21:32.007Z,671.00
2023-03-26T10:22:22.079Z,662.00
2023-03-26T10:23:12.142Z,668.00
2023-03-26T10:24:02.206Z,663.00
2023-03-26T10:24:52.360Z,689.00
2023-03-26T10:25:42.443Z,686.00